sensor_id;sensor_type;location;lat;lon;timestamp;P1;durP1;ratioP1;P2;durP2;ratioP2
3627;SDS011;1830;49.000;12.074;2023-05-20T00:00:49;7.67;;;6.87;;
3627;SDS011;1830;49.000;12.074;2023-05-20T00:03:17;8.17;;;6.60;;
3627;SDS011;1830;49.000;12.074;2023-05-20T00:05:44;8.10;;;6.77;;
3627;SDS011;1830;49.000;12.074;2023-05-20T00:08:11;7.90;;;6.70;;
3627;SDS011;1830;49.000;12.074;2023-05-20T00:10:38;7.00;;;6.40;;
3627;SDS011;1830;49.000;12.074;2023-05-20T00:13:06;8.33;;;7.43;;
3627;SDS011;1830;49.000;12.074;2023-05-20T00:15:33;8.80;;;6.70;;
3627;SDS011;1830;49.000;12.074;2023-05-20T00:18:01;7.60;;;6.90;;
3627;SDS011;1830;49.000;12.074;2023-05-20T00:20:28;6.80;;;5.93;;
3627;SDS011;1830;49.000;12.074;2023-05-20T00:22:55;7.57;;;6.87;;
3627;SDS011;1830;49.000;12.074;2023-05-20T00:25:22;8.20;;;7.30;;
3627;SDS011;1830;49.000;12.074;2023-05-20T00:27:49;7.43;;;6.73;;
3627;SDS011;1830;49.000;12.074;2023-05-20T00:30:17;8.27;;;6.60;;
3627;SDS011;1830;49.000;12.074;2023-05-20T00:32:44;7.93;;;7.20;;
3627;SDS011;1830;49.000;12.074;2023-05-20T00:35:10;8.70;;;6.47;;
3627;SDS011;1830;49.000;12.074;2023-05-20T00:37:37;7.40;;;6.70;;
3627;SDS011;1830;49.000;12.074;2023-05-20T00:40:05;7.27;;;6.57;;
3627;SDS011;1830;49.000;12.074;2023-05-20T00:42:32;7.67;;;6.77;;
3627;SDS011;1830;49.000;12.074;2023-05-20T00:44:59;7.70;;;6.97;;
3627;SDS011;1830;49.000;12.074;2023-05-20T00:47:28;8.03;;;7.27;;
3627;SDS011;1830;49.000;12.074;2023-05-20T00:49:57;12.07;;;7.43;;
3627;SDS011;1830;49.000;12.074;2023-05-20T00:52:25;7.93;;;7.10;;
3627;SDS011;1830;49.000;12.074;2023-05-20T00:54:55;8.30;;;7.50;;
3627;SDS011;1830;49.000;12.074;2023-05-20T00:57:22;8.27;;;7.47;;
3627;SDS011;1830;49.000;12.074;2023-05-20T00:59:49;8.33;;;7.53;;
3627;SDS011;1830;49.000;12.074;2023-05-20T01:02:16;7.53;;;6.83;;
3627;SDS011;1830;49.000;12.074;2023-05-20T01:04:45;10.70;;;7.90;;
3627;SDS011;1830;49.000;12.074;2023-05-20T01:07:12;9.07;;;8.17;;
3627;SDS011;1830;49.000;12.074;2023-05-20T01:09:40;10.03;;;8.13;;
3627;SDS011;1830;49.000;12.074;2023-05-20T01:12:08;22.53;;;8.37;;
3627;SDS011;1830;49.000;12.074;2023-05-20T01:14:40;9.23;;;7.57;;
3627;SDS011;1830;49.000;12.074;2023-05-20T01:17:13;9.43;;;8.43;;
3627;SDS011;1830;49.000;12.074;2023-05-20T01:19:42;13.77;;;7.50;;
3627;SDS011;1830;49.000;12.074;2023-05-20T01:22:12;9.17;;;8.10;;
3627;SDS011;1830;49.000;12.074;2023-05-20T01:24:42;18.50;;;8.03;;
3627;SDS011;1830;49.000;12.074;2023-05-20T01:27:09;9.40;;;8.20;;
3627;SDS011;1830;49.000;12.074;2023-05-20T01:29:37;9.10;;;8.20;;
3627;SDS011;1830;49.000;12.074;2023-05-20T01:32:06;9.20;;;8.20;;
3627;SDS011;1830;49.000;12.074;2023-05-20T01:34:36;9.07;;;8.17;;
3627;SDS011;1830;49.000;12.074;2023-05-20T01:37:05;10.27;;;9.00;;
3627;SDS011;1830;49.000;12.074;2023-05-20T01:39:34;8.83;;;8.03;;
3627;SDS011;1830;49.000;12.074;2023-05-20T01:42:04;8.93;;;7.70;;
3627;SDS011;1830;49.000;12.074;2023-05-20T01:44:32;9.53;;;8.63;;
3627;SDS011;1830;49.000;12.074;2023-05-20T01:46:59;8.87;;;7.97;;
3627;SDS011;1830;49.000;12.074;2023-05-20T01:49:26;11.07;;;8.70;;
3627;SDS011;1830;49.000;12.074;2023-05-20T01:51:53;13.67;;;8.77;;
3627;SDS011;1830;49.000;12.074;2023-05-20T01:54:20;10.13;;;8.23;;
3627;SDS011;1830;49.000;12.074;2023-05-20T01:56:47;10.07;;;8.60;;
3627;SDS011;1830;49.000;12.074;2023-05-20T01:59:16;10.70;;;8.53;;
3627;SDS011;1830;49.000;12.074;2023-05-20T02:01:42;10.53;;;8.20;;
3627;SDS011;1830;49.000;12.074;2023-05-20T02:04:10;8.80;;;7.90;;
3627;SDS011;1830;49.000;12.074;2023-05-20T02:06:36;11.27;;;8.87;;
3627;SDS011;1830;49.000;12.074;2023-05-20T02:09:03;19.90;;;9.27;;
3627;SDS011;1830;49.000;12.074;2023-05-20T02:11:30;8.93;;;8.00;;
3627;SDS011;1830;49.000;12.074;2023-05-20T02:13:57;12.33;;;10.20;;
3627;SDS011;1830;49.000;12.074;2023-05-20T02:16:25;8.90;;;8.07;;
3627;SDS011;1830;49.000;12.074;2023-05-20T02:18:52;11.87;;;9.10;;
3627;SDS011;1830;49.000;12.074;2023-05-20T02:21:20;9.87;;;8.90;;
3627;SDS011;1830;49.000;12.074;2023-05-20T02:23:47;11.77;;;9.60;;
3627;SDS011;1830;49.000;12.074;2023-05-20T02:26:13;16.43;;;9.33;;
3627;SDS011;1830;49.000;12.074;2023-05-20T02:28:40;12.03;;;9.77;;
3627;SDS011;1830;49.000;12.074;2023-05-20T02:31:10;10.57;;;9.10;;
3627;SDS011;1830;49.000;12.074;2023-05-20T02:33:38;16.60;;;9.63;;
3627;SDS011;1830;49.000;12.074;2023-05-20T02:36:05;12.13;;;10.50;;
3627;SDS011;1830;49.000;12.074;2023-05-20T02:38:33;11.07;;;9.97;;
3627;SDS011;1830;49.000;12.074;2023-05-20T02:41:00;11.17;;;9.80;;
3627;SDS011;1830;49.000;12.074;2023-05-20T02:43:28;12.17;;;10.10;;
3627;SDS011;1830;49.000;12.074;2023-05-20T02:45:55;13.10;;;10.37;;
3627;SDS011;1830;49.000;12.074;2023-05-20T02:48:22;10.97;;;9.63;;
3627;SDS011;1830;49.000;12.074;2023-05-20T02:50:51;13.13;;;11.23;;
3627;SDS011;1830;49.000;12.074;2023-05-20T02:53:18;11.33;;;10.20;;
3627;SDS011;1830;49.000;12.074;2023-05-20T02:55:45;11.00;;;9.70;;
3627;SDS011;1830;49.000;12.074;2023-05-20T02:58:13;13.87;;;10.10;;
3627;SDS011;1830;49.000;12.074;2023-05-20T03:00:39;13.20;;;10.13;;
3627;SDS011;1830;49.000;12.074;2023-05-20T03:03:06;14.47;;;10.57;;
3627;SDS011;1830;49.000;12.074;2023-05-20T03:05:34;12.60;;;10.40;;
3627;SDS011;1830;49.000;12.074;2023-05-20T03:08:06;15.23;;;10.60;;
3627;SDS011;1830;49.000;12.074;2023-05-20T03:10:34;11.77;;;10.50;;
3627;SDS011;1830;49.000;12.074;2023-05-20T03:13:03;13.40;;;10.57;;
3627;SDS011;1830;49.000;12.074;2023-05-20T03:15:32;13.60;;;10.67;;
3627;SDS011;1830;49.000;12.074;2023-05-20T03:17:59;14.20;;;10.80;;
3627;SDS011;1830;49.000;12.074;2023-05-20T03:20:27;14.60;;;11.37;;
3627;SDS011;1830;49.000;12.074;2023-05-20T03:22:56;11.70;;;10.60;;
3627;SDS011;1830;49.000;12.074;2023-05-20T03:25:24;13.20;;;10.80;;
3627;SDS011;1830;49.000;12.074;2023-05-20T03:27:51;14.20;;;11.93;;
3627;SDS011;1830;49.000;12.074;2023-05-20T03:30:17;15.40;;;11.63;;
3627;SDS011;1830;49.000;12.074;2023-05-20T03:32:44;11.77;;;10.50;;
3627;SDS011;1830;49.000;12.074;2023-05-20T03:35:11;12.70;;;10.97;;
3627;SDS011;1830;49.000;12.074;2023-05-20T03:37:38;13.60;;;10.87;;
3627;SDS011;1830;49.000;12.074;2023-05-20T03:40:07;14.90;;;11.00;;
3627;SDS011;1830;49.000;12.074;2023-05-20T03:42:36;13.23;;;11.60;;
3627;SDS011;1830;49.000;12.074;2023-05-20T03:45:04;13.17;;;11.57;;
3627;SDS011;1830;49.000;12.074;2023-05-20T03:47:31;14.60;;;11.43;;
3627;SDS011;1830;49.000;12.074;2023-05-20T03:49:58;16.83;;;11.70;;
3627;SDS011;1830;49.000;12.074;2023-05-20T03:52:24;15.13;;;12.00;;
3627;SDS011;1830;49.000;12.074;2023-05-20T03:54:52;17.73;;;11.93;;
3627;SDS011;1830;49.000;12.074;2023-05-20T03:57:19;17.23;;;13.20;;
3627;SDS011;1830;49.000;12.074;2023-05-20T03:59:47;14.10;;;12.50;;
3627;SDS011;1830;49.000;12.074;2023-05-20T04:02:15;13.20;;;11.80;;
3627;SDS011;1830;49.000;12.074;2023-05-20T04:04:42;13.67;;;12.00;;
3627;SDS011;1830;49.000;12.074;2023-05-20T04:07:08;16.43;;;12.00;;
3627;SDS011;1830;49.000;12.074;2023-05-20T04:09:36;14.70;;;11.97;;
3627;SDS011;1830;49.000;12.074;2023-05-20T04:12:03;13.97;;;12.30;;
3627;SDS011;1830;49.000;12.074;2023-05-20T04:14:38;22.03;;;14.67;;
3627;SDS011;1830;49.000;12.074;2023-05-20T04:17:07;17.40;;;14.70;;
3627;SDS011;1830;49.000;12.074;2023-05-20T04:19:34;15.30;;;12.80;;
3627;SDS011;1830;49.000;12.074;2023-05-20T04:22:02;13.93;;;12.00;;
3627;SDS011;1830;49.000;12.074;2023-05-20T04:24:29;16.33;;;13.63;;
3627;SDS011;1830;49.000;12.074;2023-05-20T04:26:56;15.13;;;13.53;;
3627;SDS011;1830;49.000;12.074;2023-05-20T04:29:23;17.83;;;12.13;;
3627;SDS011;1830;49.000;12.074;2023-05-20T04:31:50;14.57;;;12.67;;
3627;SDS011;1830;49.000;12.074;2023-05-20T04:34:19;17.00;;;13.30;;
3627;SDS011;1830;49.000;12.074;2023-05-20T04:36:50;20.40;;;15.00;;
3627;SDS011;1830;49.000;12.074;2023-05-20T04:39:17;16.40;;;13.47;;
3627;SDS011;1830;49.000;12.074;2023-05-20T04:41:45;18.30;;;15.40;;
3627;SDS011;1830;49.000;12.074;2023-05-20T04:44:12;15.37;;;13.60;;
3627;SDS011;1830;49.000;12.074;2023-05-20T04:46:39;17.17;;;12.37;;
3627;SDS011;1830;49.000;12.074;2023-05-20T04:49:05;17.73;;;13.50;;
3627;SDS011;1830;49.000;12.074;2023-05-20T04:51:34;19.30;;;14.00;;
3627;SDS011;1830;49.000;12.074;2023-05-20T04:54:00;16.90;;;12.90;;
3627;SDS011;1830;49.000;12.074;2023-05-20T04:56:27;15.67;;;13.87;;
3627;SDS011;1830;49.000;12.074;2023-05-20T04:58:54;17.37;;;13.40;;
3627;SDS011;1830;49.000;12.074;2023-05-20T05:01:21;16.60;;;13.67;;
3627;SDS011;1830;49.000;12.074;2023-05-20T05:03:47;15.10;;;13.50;;
3627;SDS011;1830;49.000;12.074;2023-05-20T05:06:14;15.20;;;13.60;;
3627;SDS011;1830;49.000;12.074;2023-05-20T05:08:43;17.50;;;14.90;;
3627;SDS011;1830;49.000;12.074;2023-05-20T05:11:10;16.73;;;14.27;;
3627;SDS011;1830;49.000;12.074;2023-05-20T05:13:37;20.17;;;14.40;;
3627;SDS011;1830;49.000;12.074;2023-05-20T05:16:04;20.50;;;15.10;;
3627;SDS011;1830;49.000;12.074;2023-05-20T05:18:31;20.77;;;15.87;;
3627;SDS011;1830;49.000;12.074;2023-05-20T05:20:58;19.40;;;16.07;;
3627;SDS011;1830;49.000;12.074;2023-05-20T05:23:25;21.07;;;16.10;;
3627;SDS011;1830;49.000;12.074;2023-05-20T05:25:54;22.70;;;15.80;;
3627;SDS011;1830;49.000;12.074;2023-05-20T05:28:21;16.47;;;13.80;;
3627;SDS011;1830;49.000;12.074;2023-05-20T05:30:48;18.10;;;15.07;;
3627;SDS011;1830;49.000;12.074;2023-05-20T05:33:15;18.00;;;15.03;;
3627;SDS011;1830;49.000;12.074;2023-05-20T05:35:41;14.83;;;13.17;;
3627;SDS011;1830;49.000;12.074;2023-05-20T05:38:08;17.00;;;13.93;;
3627;SDS011;1830;49.000;12.074;2023-05-20T05:40:35;20.60;;;15.30;;
3627;SDS011;1830;49.000;12.074;2023-05-20T05:43:03;18.80;;;14.30;;
3627;SDS011;1830;49.000;12.074;2023-05-20T05:45:30;16.17;;;14.47;;
3627;SDS011;1830;49.000;12.074;2023-05-20T05:48:00;18.20;;;14.40;;
3627;SDS011;1830;49.000;12.074;2023-05-20T05:50:27;17.90;;;14.53;;
3627;SDS011;1830;49.000;12.074;2023-05-20T05:53:27;16.47;;;13.73;;
3627;SDS011;1830;49.000;12.074;2023-05-20T05:55:51;15.80;;;14.20;;
3627;SDS011;1830;49.000;12.074;2023-05-20T05:58:20;18.90;;;13.50;;
3627;SDS011;1830;49.000;12.074;2023-05-20T06:00:49;16.57;;;13.50;;
3627;SDS011;1830;49.000;12.074;2023-05-20T06:03:22;16.33;;;13.40;;
3627;SDS011;1830;49.000;12.074;2023-05-20T06:05:59;22.50;;;13.17;;
3627;SDS011;1830;49.000;12.074;2023-05-20T06:08:26;16.90;;;13.83;;
3627;SDS011;1830;49.000;12.074;2023-05-20T06:10:53;15.97;;;13.53;;
3627;SDS011;1830;49.000;12.074;2023-05-20T06:13:22;16.00;;;13.50;;
3627;SDS011;1830;49.000;12.074;2023-05-20T06:15:51;17.00;;;13.23;;
3627;SDS011;1830;49.000;12.074;2023-05-20T06:18:18;15.53;;;13.93;;
3627;SDS011;1830;49.000;12.074;2023-05-20T06:20:53;16.30;;;13.50;;
3627;SDS011;1830;49.000;12.074;2023-05-20T06:23:20;15.83;;;14.07;;
3627;SDS011;1830;49.000;12.074;2023-05-20T06:25:48;17.30;;;13.33;;
3627;SDS011;1830;49.000;12.074;2023-05-20T06:28:15;15.73;;;13.13;;
3627;SDS011;1830;49.000;12.074;2023-05-20T06:30:44;17.63;;;13.53;;
3627;SDS011;1830;49.000;12.074;2023-05-20T06:33:10;14.97;;;12.87;;
3627;SDS011;1830;49.000;12.074;2023-05-20T06:35:38;17.27;;;13.10;;
3627;SDS011;1830;49.000;12.074;2023-05-20T06:38:10;16.33;;;13.10;;
3627;SDS011;1830;49.000;12.074;2023-05-20T06:40:37;14.80;;;12.10;;
3627;SDS011;1830;49.000;12.074;2023-05-20T06:43:04;17.83;;;13.13;;
3627;SDS011;1830;49.000;12.074;2023-05-20T06:45:31;14.37;;;12.87;;
3627;SDS011;1830;49.000;12.074;2023-05-20T06:47:59;13.73;;;12.33;;
3627;SDS011;1830;49.000;12.074;2023-05-20T06:50:29;15.20;;;12.00;;
3627;SDS011;1830;49.000;12.074;2023-05-20T06:52:59;15.30;;;13.67;;
3627;SDS011;1830;49.000;12.074;2023-05-20T06:55:26;16.07;;;13.30;;
3627;SDS011;1830;49.000;12.074;2023-05-20T06:57:55;13.87;;;12.47;;
3627;SDS011;1830;49.000;12.074;2023-05-20T07:00:25;16.63;;;12.80;;
3627;SDS011;1830;49.000;12.074;2023-05-20T07:02:54;15.00;;;12.10;;
3627;SDS011;1830;49.000;12.074;2023-05-20T07:05:23;14.50;;;11.73;;
3627;SDS011;1830;49.000;12.074;2023-05-20T07:07:58;13.80;;;11.63;;
3627;SDS011;1830;49.000;12.074;2023-05-20T07:10:34;12.93;;;11.73;;
3627;SDS011;1830;49.000;12.074;2023-05-20T07:13:01;23.83;;;11.53;;
3627;SDS011;1830;49.000;12.074;2023-05-20T07:15:29;20.53;;;12.30;;
3627;SDS011;1830;49.000;12.074;2023-05-20T07:17:58;13.07;;;11.70;;
3627;SDS011;1830;49.000;12.074;2023-05-20T07:20:26;13.90;;;11.00;;
3627;SDS011;1830;49.000;12.074;2023-05-20T07:22:55;11.23;;;10.03;;
3627;SDS011;1830;49.000;12.074;2023-05-20T07:25:22;10.87;;;9.67;;
3627;SDS011;1830;49.000;12.074;2023-05-20T07:27:49;12.07;;;10.90;;
3627;SDS011;1830;49.000;12.074;2023-05-20T07:30:18;12.07;;;10.47;;
3627;SDS011;1830;49.000;12.074;2023-05-20T07:32:52;11.93;;;10.63;;
3627;SDS011;1830;49.000;12.074;2023-05-20T07:35:19;18.90;;;10.97;;
3627;SDS011;1830;49.000;12.074;2023-05-20T07:37:47;11.30;;;10.27;;
3627;SDS011;1830;49.000;12.074;2023-05-20T07:40:14;20.83;;;11.00;;
3627;SDS011;1830;49.000;12.074;2023-05-20T07:42:41;10.83;;;9.73;;
3627;SDS011;1830;49.000;12.074;2023-05-20T07:45:08;10.93;;;9.80;;
3627;SDS011;1830;49.000;12.074;2023-05-20T07:47:36;16.63;;;10.30;;
3627;SDS011;1830;49.000;12.074;2023-05-20T07:50:06;15.00;;;9.83;;
3627;SDS011;1830;49.000;12.074;2023-05-20T07:52:33;11.57;;;9.97;;
3627;SDS011;1830;49.000;12.074;2023-05-20T07:55:07;10.07;;;9.03;;
3627;SDS011;1830;49.000;12.074;2023-05-20T07:57:34;17.20;;;10.27;;
3627;SDS011;1830;49.000;12.074;2023-05-20T08:00:01;14.60;;;9.43;;
3627;SDS011;1830;49.000;12.074;2023-05-20T08:02:30;10.63;;;9.57;;
3627;SDS011;1830;49.000;12.074;2023-05-20T08:04:57;10.87;;;9.00;;
3627;SDS011;1830;49.000;12.074;2023-05-20T08:07:24;13.30;;;9.63;;
3627;SDS011;1830;49.000;12.074;2023-05-20T08:09:59;11.93;;;9.63;;
3627;SDS011;1830;49.000;12.074;2023-05-20T08:12:38;19.30;;;10.50;;
3627;SDS011;1830;49.000;12.074;2023-05-20T08:15:10;13.13;;;8.70;;
3627;SDS011;1830;49.000;12.074;2023-05-20T08:17:51;10.70;;;9.57;;
3627;SDS011;1830;49.000;12.074;2023-05-20T08:20:23;13.73;;;9.87;;
3627;SDS011;1830;49.000;12.074;2023-05-20T08:22:58;16.47;;;9.80;;
3627;SDS011;1830;49.000;12.074;2023-05-20T08:25:25;12.83;;;10.30;;
3627;SDS011;1830;49.000;12.074;2023-05-20T08:27:55;10.77;;;9.73;;
3627;SDS011;1830;49.000;12.074;2023-05-20T08:30:22;11.43;;;10.23;;
3627;SDS011;1830;49.000;12.074;2023-05-20T08:32:49;10.10;;;9.20;;
3627;SDS011;1830;49.000;12.074;2023-05-20T08:35:16;12.97;;;10.00;;
3627;SDS011;1830;49.000;12.074;2023-05-20T08:37:46;10.53;;;9.10;;
3627;SDS011;1830;49.000;12.074;2023-05-20T08:40:14;10.60;;;9.43;;
3627;SDS011;1830;49.000;12.074;2023-05-20T08:42:44;10.90;;;9.07;;
3627;SDS011;1830;49.000;12.074;2023-05-20T08:45:16;14.00;;;10.20;;
3627;SDS011;1830;49.000;12.074;2023-05-20T08:47:44;14.13;;;10.73;;
3627;SDS011;1830;49.000;12.074;2023-05-20T08:50:12;11.50;;;9.57;;
3627;SDS011;1830;49.000;12.074;2023-05-20T08:52:41;11.77;;;9.00;;
3627;SDS011;1830;49.000;12.074;2023-05-20T08:55:10;15.33;;;9.20;;
3627;SDS011;1830;49.000;12.074;2023-05-20T08:57:41;13.90;;;10.10;;
3627;SDS011;1830;49.000;12.074;2023-05-20T09:00:16;13.60;;;9.50;;
3627;SDS011;1830;49.000;12.074;2023-05-20T09:02:53;14.20;;;9.10;;
3627;SDS011;1830;49.000;12.074;2023-05-20T09:05:28;14.50;;;10.20;;
3627;SDS011;1830;49.000;12.074;2023-05-20T09:08:03;18.60;;;10.50;;
3627;SDS011;1830;49.000;12.074;2023-05-20T09:10:37;10.77;;;9.60;;
3627;SDS011;1830;49.000;12.074;2023-05-20T09:13:05;11.33;;;10.23;;
3627;SDS011;1830;49.000;12.074;2023-05-20T09:15:35;11.70;;;10.57;;
3627;SDS011;1830;49.000;12.074;2023-05-20T09:18:12;10.60;;;9.60;;
3627;SDS011;1830;49.000;12.074;2023-05-20T09:23:30;12.23;;;9.90;;
3627;SDS011;1830;49.000;12.074;2023-05-20T09:25:59;11.13;;;10.03;;
3627;SDS011;1830;49.000;12.074;2023-05-20T09:31:22;16.00;;;9.93;;
3627;SDS011;1830;49.000;12.074;2023-05-20T09:34:09;10.97;;;9.13;;
3627;SDS011;1830;49.000;12.074;2023-05-20T09:36:47;13.63;;;10.20;;
3627;SDS011;1830;49.000;12.074;2023-05-20T09:39:24;11.17;;;9.97;;
3627;SDS011;1830;49.000;12.074;2023-05-20T09:42:04;11.97;;;9.77;;
3627;SDS011;1830;49.000;12.074;2023-05-20T09:44:37;10.10;;;9.10;;
3627;SDS011;1830;49.000;12.074;2023-05-20T10:37:39;8.77;;;7.13;;
3627;SDS011;1830;49.000;12.074;2023-05-20T10:40:40;9.50;;;7.33;;
3627;SDS011;1830;49.000;12.074;2023-05-20T10:46:42;8.40;;;7.27;;
3627;SDS011;1830;49.000;12.074;2023-05-20T10:49:18;9.50;;;7.70;;
3627;SDS011;1830;49.000;12.074;2023-05-20T10:52:17;9.50;;;7.70;;
3627;SDS011;1830;49.000;12.074;2023-05-20T10:55:22;10.07;;;8.00;;
3627;SDS011;1830;49.000;12.074;2023-05-20T10:57:50;9.93;;;8.43;;
3627;SDS011;1830;49.000;12.074;2023-05-20T11:00:20;12.30;;;7.90;;
3627;SDS011;1830;49.000;12.074;2023-05-20T11:03:04;9.23;;;7.23;;
3627;SDS011;1830;49.000;12.074;2023-05-20T11:05:47;10.27;;;7.73;;
3627;SDS011;1830;49.000;12.074;2023-05-20T11:08:14;12.17;;;8.33;;
3627;SDS011;1830;49.000;12.074;2023-05-20T11:21:41;9.30;;;7.93;;
3627;SDS011;1830;49.000;12.074;2023-05-20T11:31:23;11.33;;;8.10;;
3627;SDS011;1830;49.000;12.074;2023-05-20T11:32:21;9.20;;;7.37;;
3627;SDS011;1830;49.000;12.074;2023-05-20T11:48:59;16.37;;;8.40;;
3627;SDS011;1830;49.000;12.074;2023-05-20T11:51:50;12.00;;;8.00;;
3627;SDS011;1830;49.000;12.074;2023-05-20T11:54:30;10.50;;;8.80;;
3627;SDS011;1830;49.000;12.074;2023-05-20T11:58:10;11.50;;;8.57;;
3627;SDS011;1830;49.000;12.074;2023-05-20T12:01:48;9.90;;;8.90;;
3627;SDS011;1830;49.000;12.074;2023-05-20T12:04:22;8.48;;;7.57;;
3627;SDS011;1830;49.000;12.074;2023-05-20T12:09:56;15.60;;;9.13;;
3627;SDS011;1830;49.000;12.074;2023-05-20T12:16:33;12.40;;;8.60;;
3627;SDS011;1830;49.000;12.074;2023-05-20T12:19:34;10.40;;;8.20;;
3627;SDS011;1830;49.000;12.074;2023-05-20T12:25:41;14.50;;;8.47;;
3627;SDS011;1830;49.000;12.074;2023-05-20T12:28:30;18.43;;;8.57;;
3627;SDS011;1830;49.000;12.074;2023-05-20T12:34:01;11.50;;;8.57;;
3627;SDS011;1830;49.000;12.074;2023-05-20T12:37:06;13.07;;;8.97;;
3627;SDS011;1830;49.000;12.074;2023-05-20T12:42:41;13.17;;;8.43;;
3627;SDS011;1830;49.000;12.074;2023-05-20T12:49:03;11.33;;;8.93;;
3627;SDS011;1830;49.000;12.074;2023-05-20T12:51:36;11.93;;;9.15;;
3627;SDS011;1830;49.000;12.074;2023-05-20T12:54:31;9.97;;;8.20;;
3627;SDS011;1830;49.000;12.074;2023-05-20T12:57:12;13.80;;;9.37;;
3627;SDS011;1830;49.000;12.074;2023-05-20T12:59:53;14.23;;;9.43;;
3627;SDS011;1830;49.000;12.074;2023-05-20T13:02:50;21.23;;;9.43;;
3627;SDS011;1830;49.000;12.074;2023-05-20T13:05:51;10.07;;;9.07;;
3627;SDS011;1830;49.000;12.074;2023-05-20T13:08:36;10.57;;;9.10;;
3627;SDS011;1830;49.000;12.074;2023-05-20T13:11:12;10.40;;;9.30;;
3627;SDS011;1830;49.000;12.074;2023-05-20T13:14:11;9.93;;;8.43;;
3627;SDS011;1830;49.000;12.074;2023-05-20T13:17:04;12.00;;;8.27;;
3627;SDS011;1830;49.000;12.074;2023-05-20T13:20:01;10.38;;;8.73;;
3627;SDS011;1830;49.000;12.074;2023-05-20T13:23:28;9.18;;;8.27;;
3627;SDS011;1830;49.000;12.074;2023-05-20T13:26:31;16.63;;;8.43;;
3627;SDS011;1830;49.000;12.074;2023-05-20T13:29:16;16.20;;;9.32;;
3627;SDS011;1830;49.000;12.074;2023-05-20T13:32:27;9.52;;;8.30;;
3627;SDS011;1830;49.000;12.074;2023-05-20T13:35:49;9.32;;;8.43;;
3627;SDS011;1830;49.000;12.074;2023-05-20T13:39:20;11.40;;;9.65;;
3627;SDS011;1830;49.000;12.074;2023-05-20T13:51:13;11.77;;;8.95;;
3627;SDS011;1830;49.000;12.074;2023-05-20T13:54:02;19.27;;;9.85;;
3627;SDS011;1830;49.000;12.074;2023-05-20T13:56:41;9.77;;;8.82;;
3627;SDS011;1830;49.000;12.074;2023-05-20T13:59:22;11.50;;;8.80;;
3627;SDS011;1830;49.000;12.074;2023-05-20T14:01:57;15.07;;;9.40;;
3627;SDS011;1830;49.000;12.074;2023-05-20T14:04:41;15.57;;;10.00;;
3627;SDS011;1830;49.000;12.074;2023-05-20T14:07:36;14.10;;;9.32;;
3627;SDS011;1830;49.000;12.074;2023-05-20T14:13:24;16.60;;;9.65;;
3627;SDS011;1830;49.000;12.074;2023-05-20T14:16:16;19.95;;;9.13;;
3627;SDS011;1830;49.000;12.074;2023-05-20T14:22:02;16.00;;;9.45;;
3627;SDS011;1830;49.000;12.074;2023-05-20T14:24:54;9.40;;;8.50;;
3627;SDS011;1830;49.000;12.074;2023-05-20T14:27:34;9.40;;;8.05;;
3627;SDS011;1830;49.000;12.074;2023-05-20T14:35:39;10.27;;;8.90;;
3627;SDS011;1830;49.000;12.074;2023-05-20T14:38:06;15.00;;;8.88;;
3627;SDS011;1830;49.000;12.074;2023-05-20T14:40:36;14.63;;;9.25;;
3627;SDS011;1830;49.000;12.074;2023-05-20T14:43:11;10.65;;;8.85;;
3627;SDS011;1830;49.000;12.074;2023-05-20T14:45:40;9.32;;;8.43;;
3627;SDS011;1830;49.000;12.074;2023-05-20T14:48:13;11.55;;;8.30;;
3627;SDS011;1830;49.000;12.074;2023-05-20T14:50:40;12.48;;;7.32;;
3627;SDS011;1830;49.000;12.074;2023-05-20T14:53:07;10.00;;;9.00;;
3627;SDS011;1830;49.000;12.074;2023-05-20T14:55:34;9.40;;;8.38;;
3627;SDS011;1830;49.000;12.074;2023-05-20T14:58:05;12.57;;;8.75;;
3627;SDS011;1830;49.000;12.074;2023-05-20T15:00:34;11.77;;;9.35;;
3627;SDS011;1830;49.000;12.074;2023-05-20T15:03:01;16.05;;;9.25;;
3627;SDS011;1830;49.000;12.074;2023-05-20T15:05:27;10.35;;;9.25;;
3627;SDS011;1830;49.000;12.074;2023-05-20T15:07:54;14.60;;;9.70;;
3627;SDS011;1830;49.000;12.074;2023-05-20T15:10:21;10.18;;;8.68;;
3627;SDS011;1830;49.000;12.074;2023-05-20T15:12:48;14.02;;;9.00;;
3627;SDS011;1830;49.000;12.074;2023-05-20T15:15:17;9.13;;;8.02;;
3627;SDS011;1830;49.000;12.074;2023-05-20T15:17:45;10.18;;;9.05;;
3627;SDS011;1830;49.000;12.074;2023-05-20T15:20:16;10.73;;;9.13;;
3627;SDS011;1830;49.000;12.074;2023-05-20T15:22:43;14.45;;;8.60;;
3627;SDS011;1830;49.000;12.074;2023-05-20T15:25:12;11.63;;;8.25;;
3627;SDS011;1830;49.000;12.074;2023-05-20T15:27:39;9.82;;;8.52;;
3627;SDS011;1830;49.000;12.074;2023-05-20T15:30:09;9.40;;;8.50;;
3627;SDS011;1830;49.000;12.074;2023-05-20T15:32:38;15.52;;;9.00;;
3627;SDS011;1830;49.000;12.074;2023-05-20T15:35:07;10.80;;;8.57;;
3627;SDS011;1830;49.000;12.074;2023-05-20T15:37:35;12.73;;;8.23;;
3627;SDS011;1830;49.000;12.074;2023-05-20T15:40:01;14.32;;;9.10;;
3627;SDS011;1830;49.000;12.074;2023-05-20T15:42:29;13.30;;;9.50;;
3627;SDS011;1830;49.000;12.074;2023-05-20T15:44:56;11.25;;;9.05;;
3627;SDS011;1830;49.000;12.074;2023-05-20T15:47:23;12.32;;;8.75;;
3627;SDS011;1830;49.000;12.074;2023-05-20T15:49:51;16.33;;;9.15;;
3627;SDS011;1830;49.000;12.074;2023-05-20T15:52:18;11.60;;;8.50;;
3627;SDS011;1830;49.000;12.074;2023-05-20T15:54:45;13.07;;;9.35;;
3627;SDS011;1830;49.000;12.074;2023-05-20T15:57:12;10.40;;;9.13;;
3627;SDS011;1830;49.000;12.074;2023-05-20T15:59:38;11.55;;;9.15;;
3627;SDS011;1830;49.000;12.074;2023-05-20T16:02:05;9.32;;;8.43;;
3627;SDS011;1830;49.000;12.074;2023-05-20T16:04:32;12.25;;;9.57;;
3627;SDS011;1830;49.000;12.074;2023-05-20T16:07:00;14.27;;;8.88;;
3627;SDS011;1830;49.000;12.074;2023-05-20T16:09:27;18.13;;;8.68;;
3627;SDS011;1830;49.000;12.074;2023-05-20T16:11:53;12.05;;;9.45;;
3627;SDS011;1830;49.000;12.074;2023-05-20T16:14:21;14.27;;;10.63;;
3627;SDS011;1830;49.000;12.074;2023-05-20T16:16:47;12.63;;;9.77;;
3627;SDS011;1830;49.000;12.074;2023-05-20T16:19:14;12.23;;;9.45;;
3627;SDS011;1830;49.000;12.074;2023-05-20T16:21:41;14.00;;;9.52;;
3627;SDS011;1830;49.000;12.074;2023-05-20T16:24:09;10.10;;;8.93;;
3627;SDS011;1830;49.000;12.074;2023-05-20T16:26:36;10.60;;;9.35;;
3627;SDS011;1830;49.000;12.074;2023-05-20T16:29:03;11.75;;;9.02;;
3627;SDS011;1830;49.000;12.074;2023-05-20T16:31:29;10.02;;;9.02;;
3627;SDS011;1830;49.000;12.074;2023-05-20T16:33:59;15.93;;;8.60;;
3627;SDS011;1830;49.000;12.074;2023-05-20T16:36:30;10.63;;;8.80;;
3627;SDS011;1830;49.000;12.074;2023-05-20T16:38:57;12.95;;;9.32;;
3627;SDS011;1830;49.000;12.074;2023-05-20T16:41:25;9.57;;;8.57;;
3627;SDS011;1830;49.000;12.074;2023-05-20T16:43:53;23.83;;;9.30;;
3627;SDS011;1830;49.000;12.074;2023-05-20T16:46:20;11.43;;;8.73;;
3627;SDS011;1830;49.000;12.074;2023-05-20T16:48:51;9.73;;;8.73;;
3627;SDS011;1830;49.000;12.074;2023-05-20T16:51:20;10.45;;;9.35;;
3627;SDS011;1830;49.000;12.074;2023-05-20T16:53:47;18.60;;;9.20;;
3627;SDS011;1830;49.000;12.074;2023-05-20T16:56:16;12.43;;;8.45;;
3627;SDS011;1830;49.000;12.074;2023-05-20T16:58:45;12.00;;;8.50;;
3627;SDS011;1830;49.000;12.074;2023-05-20T17:01:14;11.93;;;8.90;;
3627;SDS011;1830;49.000;12.074;2023-05-20T17:03:51;10.60;;;8.90;;
3627;SDS011;1830;49.000;12.074;2023-05-20T17:06:43;11.55;;;9.00;;
3627;SDS011;1830;49.000;12.074;2023-05-20T17:09:14;15.57;;;8.57;;
3627;SDS011;1830;49.000;12.074;2023-05-20T17:11:50;12.15;;;8.52;;
3627;SDS011;1830;49.000;12.074;2023-05-20T17:14:23;18.83;;;8.73;;
3627;SDS011;1830;49.000;12.074;2023-05-20T17:16:50;24.92;;;9.30;;
3627;SDS011;1830;49.000;12.074;2023-05-20T17:19:19;13.35;;;8.65;;
3627;SDS011;1830;49.000;12.074;2023-05-20T17:21:46;15.05;;;9.10;;
3627;SDS011;1830;49.000;12.074;2023-05-20T17:24:13;9.95;;;8.68;;